createdAt,value
2022-09-05T00:00:05.887Z,20.10
2022-09-05T00:02:39.316Z,20.00
2022-09-05T00:05:29.245Z,20.00
2022-09-05T00:08:23.922Z,20.00
2022-09-05T00:11:43.043Z,20.00
2022-09-05T00:15:15.157Z,20.00
2022-09-05T00:20:34.840Z,20.00
2022-09-05T00:24:30.499Z,19.90
2022-09-05T00:24:36.644Z,20.00
2022-09-05T00:27:00.534Z,19.90
2022-09-05T00:31:05.771Z,19.90
2022-09-05T00:33:23.295Z,19.90
2022-09-05T00:36:17.741Z,19.90
2022-09-05T00:38:58.281Z,19.80
2022-09-05T00:41:27.175Z,19.80
2022-09-05T00:43:57.287Z,19.80
2022-09-05T00:46:32.659Z,19.80
2022-09-05T00:49:29.157Z,19.80
2022-09-05T00:51:56.334Z,19.80
2022-09-05T00:54:48.145Z,19.80
2022-09-05T00:57:52.639Z,19.70
2022-09-05T01:00:22.958Z,19.70
2022-09-05T01:03:10.117Z,19.70
2022-09-05T01:05:40.453Z,19.70
2022-09-05T01:08:23.338Z,19.70
2022-09-05T01:11:28.338Z,19.70
2022-09-05T01:14:32.418Z,19.70
2022-09-05T01:16:59.445Z,19.60
2022-09-05T01:20:19.732Z,19.60
2022-09-05T01:23:08.602Z,19.60
2022-09-05T01:25:52.536Z,19.60
2022-09-05T01:29:16.939Z,19.60
2022-09-05T01:31:42.809Z,19.50
2022-09-05T01:34:41.741Z,19.50
2022-09-05T01:37:54.229Z,19.50
2022-09-05T01:40:39.627Z,19.50
2022-09-05T01:43:19.977Z,19.50
2022-09-05T01:46:21.061Z,19.50
2022-09-05T01:48:58.364Z,19.50
2022-09-05T01:52:06.723Z,19.50
2022-09-05T01:54:58.557Z,19.40
2022-09-05T01:57:34.927Z,19.40
2022-09-05T02:00:17.214Z,19.40
2022-09-05T02:02:55.950Z,19.40
2022-09-05T02:05:47.610Z,19.40
2022-09-05T02:08:15.850Z,19.40
2022-09-05T02:10:43.004Z,19.30
2022-09-05T02:13:34.002Z,19.30
2022-09-05T02:16:19.365Z,19.30
2022-09-05T02:19:10.792Z,19.30
2022-09-05T02:21:57.567Z,19.30
2022-09-05T02:24:33.409Z,19.30
2022-09-05T02:27:53.577Z,19.20
2022-09-05T02:29:58.359Z,19.20
2022-09-05T02:32:39.261Z,19.20
2022-09-05T02:35:10.284Z,19.20
2022-09-05T02:40:45.985Z,19.20
2022-09-05T02:45:03.628Z,19.20
2022-09-05T02:45:17.650Z,19.20
2022-09-05T02:46:20.738Z,19.20
2022-09-05T02:49:43.156Z,19.20
2022-09-05T02:57:28.671Z,19.10
2022-09-05T02:57:39.662Z,19.10
2022-09-05T02:58:11.896Z,19.10
2022-09-05T03:00:47.981Z,19.10
2022-09-05T03:03:18.160Z,19.10
2022-09-05T03:05:59.729Z,19.10
2022-09-05T03:08:42.160Z,19.10
2022-09-05T03:11:15.386Z,19.10
2022-09-05T03:14:07.533Z,19.00
2022-09-05T03:17:02.527Z,19.00
2022-09-05T03:19:54.627Z,19.00
2022-09-05T03:22:37.344Z,19.00
2022-09-05T03:25:28.822Z,19.00
2022-09-05T03:28:26.616Z,19.00
2022-09-05T03:31:31.594Z,19.00
2022-09-05T03:34:37.914Z,18.90
2022-09-05T03:37:26.946Z,18.90
2022-09-05T03:40:36.661Z,18.90
2022-09-05T03:43:22.035Z,18.90
2022-09-05T03:45:58.340Z,18.90
2022-09-05T03:48:28.334Z,18.80
2022-09-05T03:57:11.556Z,18.80
2022-09-05T03:57:26.847Z,18.80
2022-09-05T03:57:41.912Z,18.80
2022-09-05T04:00:16.132Z,18.80
2022-09-05T04:08:03.335Z,18.80
2022-09-05T04:08:29.664Z,18.80
2022-09-05T04:09:02.205Z,18.80
2022-09-05T04:11:41.670Z,18.70
2022-09-05T04:14:43.198Z,18.70
2022-09-05T04:17:37.044Z,18.70
2022-09-05T04:20:40.562Z,18.70
2022-09-05T04:23:25.665Z,18.70
2022-09-05T04:26:11.006Z,18.60
2022-09-05T04:28:54.079Z,18.70
2022-09-05T04:32:18.180Z,18.60
2022-09-05T04:35:07.461Z,18.60
2022-09-05T04:37:48.879Z,18.60
2022-09-05T04:40:37.368Z,18.60
2022-09-05T04:43:13.861Z,18.60
2022-09-05T04:45:48.614Z,18.60
2022-09-05T04:48:23.260Z,18.60
2022-09-05T04:51:22.836Z,18.50
2022-09-05T04:54:18.987Z,18.50
2022-09-05T04:56:51.116Z,18.50
2022-09-05T05:03:16.303Z,18.50
2022-09-05T05:06:01.639Z,18.50
2022-09-05T05:06:16.464Z,18.50
2022-09-05T05:08:17.374Z,18.40
2022-09-05T05:17:57.331Z,18.50
2022-09-05T05:18:09.264Z,18.40
2022-09-05T05:18:15.466Z,18.40
2022-09-05T05:20:39.854Z,18.40
2022-09-05T05:23:17.097Z,18.40
2022-09-05T05:25:54.421Z,18.40
2022-09-05T05:28:46.288Z,18.40
2022-09-05T05:31:30.969Z,18.40
2022-09-05T05:34:09.759Z,18.40
2022-09-05T05:37:03.014Z,18.40
2022-09-05T05:39:33.256Z,18.40
2022-09-05T05:42:20.183Z,18.40
2022-09-05T05:44:54.714Z,18.40
2022-09-05T05:47:31.415Z,18.40
2022-09-05T05:50:02.875Z,18.40
2022-09-05T05:53:00.992Z,18.40
2022-09-05T05:55:52.977Z,18.40
2022-09-05T05:58:46.325Z,18.30
2022-09-05T06:01:36.946Z,18.30
2022-09-05T06:04:35.368Z,18.30
2022-09-05T06:07:23.669Z,18.30
2022-09-05T06:14:56.377Z,18.30
2022-09-05T06:14:57.750Z,18.30
2022-09-05T06:16:16.790Z,18.30
2022-09-05T06:19:05.663Z,18.30
2022-09-05T06:22:31.305Z,18.30
2022-09-05T06:25:22.792Z,18.30
2022-09-05T06:28:19.309Z,18.30
2022-09-05T06:31:33.694Z,18.40
2022-09-05T06:34:30.855Z,18.40
2022-09-05T06:37:25.486Z,18.40
2022-09-05T06:40:12.240Z,18.40
2022-09-05T06:43:15.309Z,18.40
2022-09-05T06:46:51.432Z,18.40
2022-09-05T06:49:37.309Z,18.40
2022-09-05T06:52:29.776Z,18.50
2022-09-05T06:55:19.054Z,18.50
2022-09-05T06:57:48.907Z,18.50
2022-09-05T07:00:23.233Z,18.50
2022-09-05T07:03:22.739Z,18.50
2022-09-05T07:06:04.772Z,18.50
2022-09-05T07:08:48.372Z,18.50
2022-09-05T07:11:20.910Z,18.60
2022-09-05T07:14:02.777Z,18.60
2022-09-05T07:16:42.022Z,18.60
2022-09-05T07:19:44.653Z,18.60
2022-09-05T07:22:44.507Z,18.60
2022-09-05T07:25:18.871Z,18.60
2022-09-05T07:28:27.054Z,18.70
2022-09-05T07:30:59.536Z,18.60
2022-09-05T07:33:29.955Z,18.70
2022-09-05T07:36:11.774Z,18.70
2022-09-05T07:38:52.040Z,18.70
2022-09-05T07:41:29.497Z,18.70
2022-09-05T07:44:23.373Z,18.70
2022-09-05T07:47:02.120Z,18.70
2022-09-05T07:49:31.172Z,18.70
2022-09-05T07:56:51.884Z,18.80
2022-09-05T07:56:53.779Z,18.70
2022-09-05T07:57:51.964Z,18.90
2022-09-05T08:00:26.962Z,18.90
2022-09-05T08:03:10.597Z,19.00
2022-09-05T08:05:48.108Z,19.00
2022-09-05T08:08:21.154Z,19.00
2022-09-05T08:11:23.277Z,19.00
2022-09-05T08:14:44.795Z,19.00
2022-09-05T08:16:58.920Z,19.10
2022-09-05T08:19:57.479Z,19.10
2022-09-05T08:22:52.822Z,19.20
2022-09-05T08:25:37.570Z,19.20
2022-09-05T08:28:41.008Z,19.20
2022-09-05T08:31:15.141Z,19.30
2022-09-05T08:33:43.625Z,19.30
2022-09-05T08:36:18.354Z,19.40
2022-09-05T08:38:46.119Z,19.40
2022-09-05T08:41:30.056Z,19.40
2022-09-05T08:46:47.736Z,19.40
2022-09-05T08:47:32.427Z,19.50
2022-09-05T08:50:41.344Z,19.50
2022-09-05T08:53:47.300Z,19.50
2022-09-05T08:56:46.349Z,19.50
2022-09-05T08:59:31.977Z,19.60
2022-09-05T09:02:46.750Z,19.60
2022-09-05T09:06:12.067Z,19.60
2022-09-05T09:08:45.979Z,19.70
2022-09-05T09:11:22.983Z,19.80
2022-09-05T09:13:54.905Z,20.00
2022-09-05T09:16:50.785Z,20.10
2022-09-05T09:19:34.368Z,20.00
2022-09-05T09:22:20.147Z,20.00
2022-09-05T09:25:15.172Z,19.90
2022-09-05T09:28:47.986Z,19.90
2022-09-05T09:31:44.196Z,20.00
2022-09-05T09:34:39.886Z,20.00
2022-09-05T09:37:31.962Z,20.00
2022-09-05T09:40:37.970Z,20.10
2022-09-05T09:43:27.439Z,20.20
2022-09-05T09:46:22.354Z,20.20
2022-09-05T09:49:23.163Z,20.30
2022-09-05T09:52:00.454Z,20.30
2022-09-05T09:54:59.828Z,20.30
2022-09-05T09:57:51.391Z,20.30
2022-09-05T10:00:21.519Z,20.40
2022-09-05T10:10:35.840Z,20.40
2022-09-05T10:10:38.273Z,20.40
2022-09-05T10:10:57.644Z,20.40
2022-09-05T10:12:39.823Z,20.50
2022-09-05T10:15:18.595Z,20.50
2022-09-05T10:18:20.417Z,20.50
2022-09-05T10:21:27.035Z,20.50
2022-09-05T10:24:21.891Z,20.60
2022-09-05T10:27:10.092Z,20.60
2022-09-05T10:30:04.927Z,20.60
2022-09-05T10:35:04.967Z,20.70
2022-09-05T10:35:49.399Z,20.70
2022-09-05T10:38:43.487Z,20.70
2022-09-05T10:41:20.949Z,20.70
2022-09-05T10:44:02.471Z,20.80
2022-09-05T10:46:50.793Z,20.80
2022-09-05T10:49:26.921Z,20.80
2022-09-05T10:52:03.541Z,20.90
2022-09-05T10:55:17.973Z,20.90
2022-09-05T10:57:58.736Z,20.90
2022-09-05T11:02:28.713Z,20.90
2022-09-05T11:03:52.722Z,21.00
2022-09-05T11:06:35.905Z,21.00
2022-09-05T11:09:19.715Z,21.00
2022-09-05T11:11:57.191Z,21.10
2022-09-05T11:14:36.075Z,21.10
2022-09-05T11:17:14.720Z,21.10
2022-09-05T11:19:56.270Z,21.10
2022-09-05T11:22:34.958Z,21.10
2022-09-05T11:25:04.975Z,21.20
2022-09-05T11:27:47.718Z,21.20
2022-09-05T11:30:30.285Z,21.20
2022-09-05T11:39:38.094Z,21.30
2022-09-05T11:39:54.296Z,21.40
2022-09-05T11:40:08.557Z,21.30
2022-09-05T11:42:41.526Z,21.40
2022-09-05T11:45:27.812Z,21.40
2022-09-05T11:48:22.813Z,21.50
2022-09-05T11:51:02.328Z,21.50
2022-09-05T11:53:57.276Z,21.50
2022-09-05T11:56:49.210Z,21.60
2022-09-05T11:59:32.975Z,21.60
2022-09-05T12:02:37.772Z,21.60
2022-09-05T12:05:49.202Z,21.60
2022-09-05T12:08:44.514Z,21.60
2022-09-05T12:11:29.691Z,21.60
2022-09-05T12:14:28.995Z,21.70
2022-09-05T12:17:35.467Z,21.70
2022-09-05T12:20:33.686Z,21.70
2022-09-05T12:24:13.198Z,21.70
2022-09-05T12:27:42.469Z,21.80
2022-09-05T12:29:46.799Z,21.80
2022-09-05T12:35:22.527Z,21.80
2022-09-05T12:36:06.806Z,21.80
2022-09-05T12:40:54.214Z,21.80
2022-09-05T12:41:44.627Z,21.80
2022-09-05T12:44:41.560Z,21.90
2022-09-05T12:47:19.466Z,21.80
2022-09-05T12:50:03.213Z,21.90
2022-09-05T12:52:46.469Z,21.90
2022-09-05T12:55:28.706Z,21.90
2022-09-05T13:02:58.903Z,21.90
2022-09-05T13:03:07.413Z,21.80
2022-09-05T13:04:13.332Z,21.80
2022-09-05T13:06:39.881Z,21.90
2022-09-05T13:09:30.796Z,21.90
2022-09-05T13:14:54.651Z,21.90
2022-09-05T13:15:39.112Z,22.00
2022-09-05T13:18:10.441Z,21.90
2022-09-05T13:21:04.518Z,21.90
2022-09-05T13:24:12.362Z,21.90
2022-09-05T13:26:50.268Z,22.00
2022-09-05T13:29:37.207Z,21.90
2022-09-05T13:38:21.155Z,21.90
2022-09-05T13:38:29.073Z,21.90
2022-09-05T13:38:49.898Z,21.90
2022-09-05T13:41:32.629Z,21.90
2022-09-05T13:44:26.737Z,21.90
2022-09-05T13:47:29.007Z,22.00
2022-09-05T13:50:05.677Z,22.00
2022-09-05T13:52:43.730Z,22.00
2022-09-05T13:55:25.303Z,21.90
2022-09-05T13:57:55.469Z,22.00
2022-09-05T14:00:41.007Z,22.00
2022-09-05T14:03:40.974Z,22.00
2022-09-05T14:06:46.439Z,22.00
2022-09-05T14:12:15.302Z,22.00
2022-09-05T14:17:57.901Z,22.10
2022-09-05T14:21:01.198Z,22.10
2022-09-05T14:23:43.444Z,22.10
2022-09-05T14:26:30.035Z,22.10
2022-09-05T14:29:18.669Z,22.10
2022-09-05T14:37:43.359Z,22.10
2022-09-05T14:37:46.431Z,22.10
2022-09-05T14:38:46.056Z,22.10
2022-09-05T14:41:53.235Z,22.10
2022-09-05T14:44:59.165Z,22.00
2022-09-05T14:47:53.515Z,22.10
2022-09-05T14:50:42.132Z,22.10
2022-09-05T14:57:56.127Z,22.00
2022-09-05T15:02:44.983Z,22.00
2022-09-05T15:02:49.219Z,22.00
2022-09-05T15:05:40.204Z,22.00
2022-09-05T15:08:52.568Z,22.00
2022-09-05T15:12:16.012Z,22.00
2022-09-05T15:13:58.657Z,22.00
2022-09-05T15:16:26.591Z,22.00
2022-09-05T15:18:56.419Z,22.00
2022-09-05T15:21:35.514Z,22.00
2022-09-05T15:24:24.047Z,22.00
2022-09-05T15:26:56.912Z,22.00
2022-09-05T15:29:34.582Z,22.00
2022-09-05T15:32:25.103Z,22.00
2022-09-05T15:34:55.581Z,22.00
2022-09-05T15:37:37.140Z,22.00
2022-09-05T15:40:22.975Z,22.00
2022-09-05T15:42:58.054Z,22.00
2022-09-05T15:45:29.995Z,22.00
2022-09-05T15:48:12.607Z,22.00
2022-09-05T15:50:50.255Z,22.00
2022-09-05T15:53:29.861Z,22.00
2022-09-05T15:56:14.160Z,22.00
2022-09-05T15:58:54.866Z,22.00
2022-09-05T16:01:59.860Z,22.00
2022-09-05T16:07:42.990Z,22.00
2022-09-05T16:10:46.539Z,21.90
2022-09-05T16:10:49.756Z,22.00
2022-09-05T16:13:15.181Z,21.90
2022-09-05T16:20:45.349Z,21.90
2022-09-05T16:23:16.667Z,21.90
2022-09-05T16:23:29.142Z,21.90
2022-09-05T16:24:59.265Z,21.90
2022-09-05T16:27:59.147Z,21.80
2022-09-05T16:30:38.879Z,21.80
2022-09-05T16:33:24.062Z,21.80
2022-09-05T16:36:04.734Z,21.80
2022-09-05T16:38:52.426Z,21.80
2022-09-05T16:41:24.606Z,21.80
2022-09-05T16:44:04.388Z,21.80
2022-09-05T16:46:44.581Z,21.70
2022-09-05T16:49:12.195Z,21.70
2022-09-05T16:52:02.004Z,21.70
2022-09-05T16:54:47.832Z,21.70
2022-09-05T16:57:23.949Z,21.70
2022-09-05T16:59:51.543Z,21.70
2022-09-05T17:02:29.036Z,21.70
2022-09-05T17:05:04.846Z,21.70
2022-09-05T17:08:09.403Z,21.60
2022-09-05T17:10:54.431Z,21.60
2022-09-05T17:13:45.854Z,21.60
2022-09-05T17:16:31.361Z,21.60
2022-09-05T17:19:01.380Z,21.60
2022-09-05T17:24:20.265Z,21.60
2022-09-05T17:29:19.512Z,21.60
2022-09-05T17:29:45.463Z,21.50
2022-09-05T17:33:45.700Z,21.10
2022-09-05T17:36:18.636Z,21.20
2022-09-05T17:38:48.865Z,21.40
2022-09-05T17:41:16.083Z,21.50
2022-09-05T17:43:51.358Z,21.60
2022-09-05T17:46:31.994Z,21.60
2022-09-05T17:49:20.048Z,21.70
2022-09-05T17:51:53.871Z,21.70
2022-09-05T17:54:28.626Z,21.80
2022-09-05T17:56:56.440Z,21.80
2022-09-05T17:59:28.381Z,21.80
2022-09-05T18:02:08.110Z,21.90
2022-09-05T18:04:47.181Z,21.90
2022-09-05T18:07:26.643Z,21.90
2022-09-05T18:10:14.632Z,21.90
2022-09-05T18:15:38.709Z,21.90
2022-09-05T18:18:08.729Z,21.90
2022-09-05T18:21:21.321Z,21.90
2022-09-05T18:24:03.340Z,21.90
2022-09-05T18:26:46.750Z,21.90
2022-09-05T18:29:57.244Z,21.90
2022-09-05T18:32:54.218Z,21.90
2022-09-05T18:36:03.093Z,21.90
2022-09-05T18:38:51.641Z,21.90
2022-09-05T18:41:23.314Z,21.90
2022-09-05T18:44:19.975Z,21.90
2022-09-05T18:46:53.803Z,21.90
2022-09-05T18:50:25.378Z,21.90
2022-09-05T18:52:36.640Z,21.90
2022-09-05T18:56:08.949Z,21.90
2022-09-05T18:58:13.701Z,21.80
2022-09-05T19:00:46.698Z,21.80
2022-09-05T19:03:30.266Z,21.80
2022-09-05T19:06:35.893Z,21.80
2022-09-05T19:09:02.811Z,21.80
2022-09-05T19:11:37.887Z,21.80
2022-09-05T19:14:53.490Z,21.70
2022-09-05T19:17:45.385Z,21.70
2022-09-05T19:20:32.182Z,21.70
2022-09-05T19:23:12.005Z,21.70
2022-09-05T19:25:44.405Z,21.70
2022-09-05T19:35:14.129Z,21.70
2022-09-05T19:36:49.131Z,21.70
2022-09-05T19:37:08.029Z,21.70
2022-09-05T19:37:27.435Z,21.70
2022-09-05T19:47:21.959Z,21.70
2022-09-05T19:47:29.443Z,21.60
2022-09-05T19:47:42.436Z,21.60
2022-09-05T19:48:34.531Z,21.60
2022-09-05T19:51:17.167Z,21.60
2022-09-05T19:54:04.445Z,21.60
2022-09-05T19:56:45.267Z,21.60
2022-09-05T19:59:34.106Z,21.50
2022-09-05T20:02:03.167Z,21.50
2022-09-05T20:04:50.760Z,21.50
2022-09-05T20:07:26.024Z,21.40
2022-09-05T20:09:54.940Z,21.40
2022-09-05T20:12:31.480Z,21.40
2022-09-05T20:15:38.892Z,21.40
2022-09-05T20:18:36.146Z,21.40
2022-09-05T20:21:23.107Z,21.40
2022-09-05T20:23:51.632Z,21.40
2022-09-05T20:26:22.673Z,21.40
2022-09-05T20:28:54.795Z,21.40
2022-09-05T20:31:27.344Z,21.30
2022-09-05T20:33:56.747Z,21.30
2022-09-05T20:43:08.993Z,21.30
2022-09-05T20:43:20.078Z,21.30
2022-09-05T20:43:27.017Z,21.30
2022-09-05T20:45:44.775Z,21.20
2022-09-05T20:54:09.827Z,21.20
2022-09-05T20:54:15.417Z,21.20
2022-09-05T20:54:27.128Z,21.20
2022-09-05T20:56:56.358Z,21.20
2022-09-05T20:59:33.555Z,21.20
2022-09-05T21:02:23.822Z,21.20
2022-09-05T21:05:20.176Z,21.10
2022-09-05T21:08:01.090Z,21.10
2022-09-05T21:10:55.790Z,21.10
2022-09-05T21:13:36.690Z,21.10
2022-09-05T21:16:27.279Z,21.10
2022-09-05T21:18:55.046Z,21.10
2022-09-05T21:21:35.074Z,21.00
2022-09-05T21:24:17.534Z,21.00
2022-09-05T21:26:47.907Z,21.10
2022-09-05T21:29:23.273Z,21.00
2022-09-05T21:31:57.527Z,21.00
2022-09-05T21:34:31.632Z,21.00
2022-09-05T21:37:07.985Z,20.90
2022-09-05T21:39:46.747Z,21.00
2022-09-05T21:47:20.336Z,20.90
2022-09-05T21:47:49.554Z,20.90
2022-09-05T21:48:10.758Z,20.90
2022-09-05T21:50:45.963Z,20.90
2022-09-05T21:58:13.039Z,20.80
2022-09-05T21:59:29.948Z,20.80
2022-09-05T21:59:35.440Z,20.80
2022-09-05T22:02:08.455Z,20.80
2022-09-05T22:04:41.776Z,20.80
2022-09-05T22:07:14.477Z,20.80
2022-09-05T22:09:42.162Z,20.80
2022-09-05T22:12:23.158Z,20.80
2022-09-05T22:15:26.410Z,20.80
2022-09-05T22:17:49.770Z,20.70
2022-09-05T22:20:21.716Z,20.70
2022-09-05T22:22:56.382Z,20.70
2022-09-05T22:25:30.970Z,20.70
2022-09-05T22:28:16.553Z,20.70
2022-09-05T22:30:43.869Z,20.70
2022-09-05T22:33:13.004Z,20.70
2022-09-05T22:35:40.945Z,20.70
2022-09-05T22:38:16.565Z,20.60
2022-09-05T22:40:47.846Z,20.60
2022-09-05T22:43:16.882Z,20.60
2022-09-05T22:45:46.998Z,20.60
2022-09-05T22:48:14.827Z,20.60
2022-09-05T22:50:42.874Z,20.60
2022-09-05T22:53:13.452Z,20.60
2022-09-05T22:55:43.276Z,20.50
2022-09-05T22:58:14.770Z,20.50
2022-09-05T23:00:44.276Z,20.50
2022-09-05T23:03:11.440Z,20.50
2022-09-05T23:05:38.735Z,20.50
2022-09-05T23:08:06.537Z,20.50
2022-09-05T23:10:35.448Z,20.50
2022-09-05T23:13:10.629Z,20.40
2022-09-05T23:15:40.944Z,20.40
2022-09-05T23:18:08.088Z,20.40
2022-09-05T23:20:37.894Z,20.40
2022-09-05T23:23:08.198Z,20.40
2022-09-05T23:25:38.702Z,20.40
2022-09-05T23:28:09.911Z,20.40
2022-09-05T23:30:38.043Z,20.30
2022-09-05T23:33:09.450Z,20.30
2022-09-05T23:35:37.425Z,20.30
2022-09-05T23:38:09.773Z,20.30
2022-09-05T23:40:37.680Z,20.30
2022-09-05T23:43:07.014Z,20.30
2022-09-05T23:45:38.004Z,20.30
2022-09-05T23:48:05.380Z,20.20
2022-09-05T23:50:32.635Z,20.20
2022-09-05T23:53:04.778Z,20.20
2022-09-05T23:55:32.987Z,20.20
2022-09-05T23:58:01.174Z,20.20
